createdAt,value
2023-03-21T00:00:43.307Z,2.05
2023-03-21T00:03:10.266Z,1.67
2023-03-21T00:05:42.197Z,1.50
2023-03-21T00:08:09.284Z,1.98
2023-03-21T00:10:43.757Z,1.65
2023-03-21T00:13:15.234Z,1.60
2023-03-21T00:16:06.261Z,1.48
2023-03-21T00:18:42.524Z,1.60
2023-03-21T00:24:00.541Z,1.50
2023-03-21T00:26:27.531Z,1.48
2023-03-21T00:28:54.208Z,1.65
2023-03-21T00:31:21.251Z,1.40
2023-03-21T00:33:48.479Z,1.25
2023-03-21T00:36:16.057Z,1.23
2023-03-21T00:38:42.919Z,1.40
2023-03-21T00:41:23.218Z,1.40
2023-03-21T00:43:58.257Z,1.30
2023-03-21T00:46:27.592Z,1.70
2023-03-21T00:48:57.030Z,1.70
2023-03-21T00:51:27.188Z,1.65
2023-03-21T00:53:58.605Z,1.23
2023-03-21T00:56:25.516Z,1.75
2023-03-21T00:58:52.235Z,1.73
2023-03-21T01:01:19.254Z,1.35
2023-03-21T01:03:48.199Z,1.30
2023-03-21T01:06:19.295Z,1.90
2023-03-21T01:08:53.147Z,1.63
2023-03-21T01:11:24.732Z,2.00
2023-03-21T01:14:03.946Z,2.05
2023-03-21T01:16:31.319Z,1.95
2023-03-21T01:18:58.354Z,1.45
2023-03-21T01:21:25.429Z,1.50
2023-03-21T01:23:52.208Z,1.40
2023-03-21T01:26:19.279Z,2.17
2023-03-21T01:28:46.438Z,1.60
2023-03-21T01:31:15.306Z,1.65
2023-03-21T01:33:42.662Z,2.08
2023-03-21T01:36:16.073Z,1.52
2023-03-21T01:38:43.780Z,1.85
2023-03-21T01:41:23.110Z,2.72
2023-03-21T01:43:52.205Z,1.42
2023-03-21T01:46:32.323Z,1.77
2023-03-21T01:49:12.722Z,1.50
2023-03-21T01:51:46.164Z,1.52
2023-03-21T01:54:17.490Z,1.63
2023-03-21T01:56:47.115Z,1.50
2023-03-21T01:59:24.908Z,1.88
2023-03-21T02:01:52.168Z,2.03
2023-03-21T02:04:22.457Z,2.42
2023-03-21T02:06:51.712Z,1.80
2023-03-21T02:09:22.675Z,2.05
2023-03-21T02:11:49.512Z,1.42
2023-03-21T02:14:28.470Z,1.80
2023-03-21T02:17:14.546Z,1.60
2023-03-21T02:19:59.437Z,2.20
2023-03-21T02:22:33.011Z,1.77
2023-03-21T02:25:25.662Z,2.20
2023-03-21T02:28:03.277Z,1.98
2023-03-21T02:31:01.225Z,2.47
2023-03-21T02:36:25.730Z,1.97
2023-03-21T02:38:52.461Z,1.80
2023-03-21T02:41:32.244Z,2.30
2023-03-21T02:44:45.069Z,2.15
2023-03-21T02:47:20.315Z,1.77
2023-03-21T02:50:02.262Z,2.20
2023-03-21T02:52:39.269Z,2.92
2023-03-21T02:55:14.273Z,1.90
2023-03-21T02:57:48.152Z,2.05
2023-03-21T03:00:21.655Z,1.63
2023-03-21T03:02:54.607Z,2.05
2023-03-21T03:05:34.000Z,1.83
2023-03-21T03:08:24.058Z,2.47
2023-03-21T03:11:02.301Z,1.80
2023-03-21T03:14:21.271Z,2.03
2023-03-21T03:16:56.148Z,2.20
2023-03-21T03:19:50.056Z,2.30
2023-03-21T03:22:36.069Z,1.65
2023-03-21T03:25:21.216Z,2.00
2023-03-21T03:27:56.516Z,1.83
2023-03-21T03:30:29.679Z,1.80
2023-03-21T03:33:03.075Z,1.63
2023-03-21T03:35:30.595Z,1.80
2023-03-21T03:38:01.035Z,1.83
2023-03-21T03:40:32.593Z,1.80
2023-03-21T03:43:12.079Z,1.65
2023-03-21T03:45:47.560Z,1.60
2023-03-21T03:48:36.732Z,1.70
2023-03-21T03:51:16.400Z,1.95
2023-03-21T03:53:51.145Z,1.80
2023-03-21T03:56:17.995Z,2.45
2023-03-21T03:58:46.046Z,2.13
2023-03-21T04:01:14.082Z,1.92
2023-03-21T04:03:49.803Z,2.13
2023-03-21T04:06:18.051Z,2.38
2023-03-21T04:08:44.954Z,2.20
2023-03-21T04:11:15.913Z,1.90
2023-03-21T04:13:42.647Z,2.30
2023-03-21T04:16:11.679Z,2.10
2023-03-21T04:18:39.347Z,2.25
2023-03-21T04:21:10.867Z,2.50
2023-03-21T04:23:37.777Z,2.10
2023-03-21T04:26:05.655Z,1.83
2023-03-21T04:28:33.637Z,2.00
2023-03-21T04:31:05.256Z,2.17
2023-03-21T04:33:38.584Z,2.15
2023-03-21T04:36:09.387Z,1.65
2023-03-21T04:38:36.840Z,2.03
2023-03-21T04:41:03.956Z,1.70
2023-03-21T04:43:31.003Z,1.70
2023-03-21T04:45:57.906Z,1.75
2023-03-21T04:48:24.744Z,1.75
2023-03-21T04:50:51.460Z,1.63
2023-03-21T04:53:18.241Z,1.40
2023-03-21T04:55:45.279Z,1.50
2023-03-21T04:58:12.047Z,1.63
2023-03-21T05:00:39.166Z,1.75
2023-03-21T05:03:09.239Z,1.77
2023-03-21T05:05:39.686Z,1.95
2023-03-21T05:08:06.557Z,1.58
2023-03-21T05:10:33.453Z,1.98
2023-03-21T05:13:00.098Z,1.83
2023-03-21T05:15:27.150Z,1.88
2023-03-21T05:17:53.993Z,1.65
2023-03-21T05:20:20.899Z,1.55
2023-03-21T05:22:50.741Z,1.73
2023-03-21T05:25:35.489Z,2.22
2023-03-21T05:28:02.292Z,1.50
2023-03-21T05:30:29.848Z,1.73
2023-03-21T05:32:56.743Z,1.75
2023-03-21T05:35:25.234Z,1.60
2023-03-21T05:37:53.422Z,2.25
2023-03-21T05:40:20.746Z,2.10
2023-03-21T05:42:47.664Z,2.33
2023-03-21T05:45:15.302Z,1.85
2023-03-21T05:47:42.051Z,2.13
2023-03-21T05:50:09.605Z,2.15
2023-03-21T05:52:36.221Z,3.28
2023-03-21T05:55:03.538Z,2.40
2023-03-21T05:57:30.201Z,2.45
2023-03-21T05:59:56.810Z,1.70
2023-03-21T06:02:23.565Z,1.40
2023-03-21T06:04:50.200Z,2.08
2023-03-21T06:07:16.818Z,2.08
2023-03-21T06:09:43.441Z,1.95
2023-03-21T06:12:11.444Z,2.00
2023-03-21T06:14:38.045Z,2.63
2023-03-21T06:17:04.687Z,2.22
2023-03-21T06:19:31.401Z,1.70
2023-03-21T06:21:58.011Z,1.50
2023-03-21T06:24:26.589Z,1.85
2023-03-21T06:26:53.244Z,1.92
2023-03-21T06:29:19.878Z,1.65
2023-03-21T06:31:46.795Z,1.60
2023-03-21T06:34:13.489Z,2.03
2023-03-21T06:36:40.090Z,1.70
2023-03-21T06:39:08.350Z,1.30
2023-03-21T06:41:35.026Z,1.63
2023-03-21T06:44:01.785Z,1.90
2023-03-21T06:46:29.937Z,2.22
2023-03-21T06:48:57.141Z,1.60
2023-03-21T06:51:23.806Z,1.77
2023-03-21T06:53:50.622Z,2.20
2023-03-21T06:56:17.257Z,1.30
2023-03-21T06:58:44.050Z,1.50
2023-03-21T07:01:10.804Z,1.80
2023-03-21T07:03:37.900Z,2.03
2023-03-21T07:06:11.977Z,1.95
2023-03-21T07:08:40.811Z,1.67
2023-03-21T07:11:08.176Z,1.55
2023-03-21T07:13:35.578Z,2.38
2023-03-21T07:16:02.506Z,1.67
2023-03-21T07:18:30.927Z,1.20
2023-03-21T07:20:57.877Z,2.13
2023-03-21T07:23:26.570Z,1.42
2023-03-21T07:25:53.813Z,1.33
2023-03-21T07:28:22.125Z,1.65
2023-03-21T07:30:55.322Z,2.55
2023-03-21T07:33:23.485Z,1.77
2023-03-21T07:35:51.273Z,1.60
2023-03-21T07:38:19.095Z,1.67
2023-03-21T07:40:46.744Z,1.35
2023-03-21T07:43:14.672Z,1.88
2023-03-21T07:45:42.724Z,1.13
2023-03-21T07:48:12.916Z,1.77
2023-03-21T07:50:40.704Z,1.70
2023-03-21T07:53:08.302Z,1.50
2023-03-21T07:55:35.545Z,1.73
2023-03-21T07:58:03.674Z,1.20
2023-03-21T08:00:30.774Z,1.75
2023-03-21T08:02:59.272Z,1.05
2023-03-21T08:05:29.335Z,1.10
2023-03-21T08:07:56.899Z,1.38
2023-03-21T08:10:23.992Z,1.48
2023-03-21T08:12:50.608Z,1.30
2023-03-21T08:15:18.038Z,1.50
2023-03-21T08:17:47.851Z,1.23
2023-03-21T08:20:18.195Z,1.80
2023-03-21T08:22:44.915Z,1.45
2023-03-21T08:25:16.246Z,1.17
2023-03-21T08:27:44.302Z,1.40
2023-03-21T08:30:12.493Z,1.30
2023-03-21T08:32:40.047Z,1.50
2023-03-21T08:35:10.348Z,1.23
2023-03-21T08:37:38.541Z,1.60
2023-03-21T08:40:09.255Z,1.80
2023-03-21T08:42:35.846Z,1.10
2023-03-21T08:45:02.561Z,0.90
2023-03-21T08:47:29.188Z,1.23
2023-03-21T08:49:59.259Z,1.58
2023-03-21T08:52:27.190Z,0.90
2023-03-21T08:54:54.800Z,0.93
2023-03-21T08:57:21.535Z,0.63
2023-03-21T08:59:48.218Z,1.10
2023-03-21T09:02:16.767Z,1.05
2023-03-21T09:04:44.951Z,1.08
2023-03-21T09:07:15.124Z,0.85
2023-03-21T09:09:42.306Z,0.90
2023-03-21T09:12:09.103Z,1.65
2023-03-21T09:14:36.001Z,1.20
2023-03-21T09:17:02.751Z,1.33
2023-03-21T09:19:39.091Z,1.50
2023-03-21T09:22:06.089Z,1.40
2023-03-21T09:24:32.833Z,2.58
2023-03-21T09:26:59.611Z,1.50
2023-03-21T09:29:26.574Z,1.00
2023-03-21T09:31:53.942Z,1.90
2023-03-21T09:34:20.699Z,0.80
2023-03-21T09:36:48.797Z,1.20
2023-03-21T09:39:17.380Z,0.98
2023-03-21T09:42:03.928Z,0.90
2023-03-21T09:44:38.766Z,1.00
2023-03-21T09:47:21.983Z,1.30
2023-03-21T09:50:12.842Z,0.98
2023-03-21T09:53:05.306Z,0.90
2023-03-21T09:55:35.616Z,0.60
2023-03-21T09:58:34.551Z,1.10
2023-03-21T10:01:05.245Z,0.60
2023-03-21T10:03:53.632Z,0.80
2023-03-21T10:06:34.742Z,1.00
2023-03-21T10:09:24.856Z,0.65
2023-03-21T10:12:08.317Z,1.00
2023-03-21T10:14:44.605Z,1.10
2023-03-21T10:17:22.015Z,0.90
2023-03-21T10:20:12.190Z,1.02
2023-03-21T10:22:39.045Z,0.95
2023-03-21T10:25:08.042Z,1.00
2023-03-21T10:27:39.322Z,0.60
2023-03-21T10:30:08.132Z,1.05
2023-03-21T10:32:36.218Z,0.70
2023-03-21T10:35:07.431Z,0.98
2023-03-21T10:37:36.457Z,1.08
2023-03-21T10:40:06.351Z,0.90
2023-03-21T10:42:33.907Z,1.25
2023-03-21T10:45:00.905Z,0.85
2023-03-21T10:47:32.656Z,0.90
2023-03-21T10:50:09.223Z,0.82
2023-03-21T10:52:42.735Z,0.90
2023-03-21T10:55:33.152Z,0.82
2023-03-21T10:58:04.004Z,0.88
2023-03-21T11:00:37.347Z,0.60
2023-03-21T11:03:05.742Z,0.82
2023-03-21T11:05:48.930Z,0.77
2023-03-21T11:08:23.264Z,0.75
2023-03-21T11:11:01.242Z,0.80
2023-03-21T11:13:40.361Z,0.73
2023-03-21T11:16:19.461Z,1.00
2023-03-21T11:18:51.235Z,0.75
2023-03-21T11:21:20.540Z,0.77
2023-03-21T11:23:51.772Z,1.15
2023-03-21T11:26:27.793Z,0.90
2023-03-21T11:28:55.421Z,0.90
2023-03-21T11:31:24.996Z,0.90
2023-03-21T11:33:57.157Z,0.90
2023-03-21T11:36:24.639Z,0.65
2023-03-21T11:41:53.863Z,0.80
2023-03-21T11:44:40.152Z,0.90
2023-03-21T11:47:10.394Z,1.08
2023-03-21T11:49:38.548Z,1.02
2023-03-21T11:52:34.578Z,1.25
2023-03-21T11:55:22.779Z,1.15
2023-03-21T11:58:14.386Z,1.67
2023-03-21T12:00:53.976Z,1.45
2023-03-21T12:03:48.596Z,2.20
2023-03-21T12:06:41.691Z,1.17
2023-03-21T12:09:44.038Z,1.30
2023-03-21T12:12:39.221Z,1.70
2023-03-21T12:15:23.956Z,1.50
2023-03-21T12:18:07.648Z,1.17
2023-03-21T12:20:53.675Z,0.90
2023-03-21T12:23:54.311Z,1.08
2023-03-21T12:26:31.574Z,1.38
2023-03-21T12:29:19.861Z,1.20
2023-03-21T12:31:49.531Z,0.82
2023-03-21T12:34:29.446Z,0.93
2023-03-21T12:37:08.278Z,1.17
2023-03-21T12:43:39.746Z,1.08
2023-03-21T12:46:38.574Z,0.70
2023-03-21T12:52:38.447Z,0.90
2023-03-21T12:55:11.730Z,0.80
2023-03-21T12:57:57.117Z,0.68
2023-03-21T13:00:46.674Z,0.60
2023-03-21T13:03:46.270Z,0.80
2023-03-21T13:06:18.350Z,0.60
2023-03-21T13:08:54.988Z,0.60
2023-03-21T13:11:25.288Z,0.60
2023-03-21T13:14:20.419Z,0.60
2023-03-21T13:17:01.567Z,0.55
2023-03-21T13:19:39.426Z,0.77
2023-03-21T13:22:26.928Z,0.50
2023-03-21T13:25:16.887Z,0.80
2023-03-21T13:27:47.305Z,0.82
2023-03-21T13:30:29.522Z,0.55
2023-03-21T13:33:08.446Z,0.57
2023-03-21T13:38:40.405Z,0.70
2023-03-21T13:41:14.168Z,0.60
2023-03-21T13:44:09.952Z,0.68
2023-03-21T13:46:56.384Z,0.80
2023-03-21T13:49:37.551Z,0.45
2023-03-21T13:52:28.490Z,1.00
2023-03-21T13:54:58.995Z,0.47
2023-03-21T13:57:32.168Z,0.52
2023-03-21T14:00:21.993Z,0.43
2023-03-21T14:02:58.437Z,0.40
2023-03-21T14:05:28.537Z,0.60
2023-03-21T14:08:12.624Z,0.40
2023-03-21T14:10:46.926Z,0.50
2023-03-21T14:13:19.494Z,0.40
2023-03-21T14:15:56.302Z,0.60
2023-03-21T14:18:28.027Z,0.43
2023-03-21T14:21:02.337Z,0.40
2023-03-21T14:23:30.203Z,1.05
2023-03-21T14:25:57.149Z,0.95
2023-03-21T14:28:32.872Z,0.30
2023-03-21T14:31:00.973Z,0.50
2023-03-21T14:33:40.232Z,0.60
2023-03-21T14:36:17.510Z,0.88
2023-03-21T14:38:53.449Z,0.98
2023-03-21T14:41:26.589Z,0.40
2023-03-21T14:44:09.329Z,1.58
2023-03-21T14:46:36.015Z,0.77
2023-03-21T14:49:25.838Z,1.00
2023-03-21T14:51:56.233Z,0.50
2023-03-21T14:54:23.727Z,0.40
2023-03-21T14:56:53.760Z,0.80
2023-03-21T14:59:24.736Z,0.70
2023-03-21T15:01:54.265Z,0.65
2023-03-21T15:04:22.889Z,0.90
2023-03-21T15:06:52.609Z,0.32
2023-03-21T15:09:21.477Z,0.95
2023-03-21T15:11:52.173Z,0.65
2023-03-21T15:14:24.596Z,1.70
2023-03-21T15:16:52.257Z,0.82
2023-03-21T15:19:26.292Z,1.00
2023-03-21T15:21:59.712Z,0.82
2023-03-21T15:24:31.584Z,0.45
2023-03-21T15:27:06.330Z,0.60
2023-03-21T15:29:37.185Z,0.80
2023-03-21T15:32:07.318Z,0.73
2023-03-21T15:34:34.084Z,0.90
2023-03-21T15:37:17.353Z,1.05
2023-03-21T15:39:45.347Z,1.67
2023-03-21T15:42:21.414Z,1.20
2023-03-21T15:44:53.172Z,1.02
2023-03-21T15:47:43.696Z,0.82
2023-03-21T15:50:41.888Z,1.08
2023-03-21T15:53:16.208Z,1.90
2023-03-21T15:55:48.319Z,1.10
2023-03-21T15:58:19.689Z,1.38
2023-03-21T16:00:54.907Z,1.00
2023-03-21T16:03:35.445Z,1.10
2023-03-21T16:06:03.182Z,0.93
2023-03-21T16:08:37.128Z,0.85
2023-03-21T16:11:17.886Z,1.00
2023-03-21T16:13:45.121Z,0.93
2023-03-21T16:16:17.714Z,0.80
2023-03-21T16:18:44.420Z,1.17
2023-03-21T16:21:16.954Z,0.93
2023-03-21T16:23:46.864Z,0.70
2023-03-21T16:26:16.597Z,1.05
2023-03-21T16:28:44.106Z,1.10
2023-03-21T16:31:20.331Z,1.80
2023-03-21T16:33:49.231Z,1.00
2023-03-21T16:36:20.448Z,1.30
2023-03-21T16:38:57.422Z,0.70
2023-03-21T16:41:27.630Z,0.95
2023-03-21T16:43:57.762Z,1.00
2023-03-21T16:46:27.242Z,0.98
2023-03-21T16:48:59.443Z,1.05
2023-03-21T16:51:38.724Z,1.70
2023-03-21T16:54:05.832Z,1.13
2023-03-21T16:56:42.461Z,1.50
2023-03-21T16:59:12.658Z,1.60
2023-03-21T17:01:41.371Z,1.52
2023-03-21T17:04:09.486Z,1.80
2023-03-21T17:06:44.813Z,1.55
2023-03-21T17:09:14.605Z,1.77
2023-03-21T17:11:42.079Z,2.22
2023-03-21T17:14:09.854Z,1.77
2023-03-21T17:16:36.919Z,1.88
2023-03-21T17:19:11.056Z,1.17
2023-03-21T17:21:37.854Z,1.85
2023-03-21T17:24:04.628Z,1.58
2023-03-21T17:26:31.274Z,1.42
2023-03-21T17:28:57.996Z,1.85
2023-03-21T17:31:27.042Z,1.83
2023-03-21T17:33:53.948Z,1.73
2023-03-21T17:36:23.544Z,1.35
2023-03-21T17:38:53.073Z,1.88
2023-03-21T17:41:21.268Z,1.50
2023-03-21T17:43:48.011Z,1.20
2023-03-21T17:46:17.056Z,1.15
2023-03-21T17:48:44.850Z,1.27
2023-03-21T17:51:16.414Z,1.20
2023-03-21T17:53:48.451Z,0.90
2023-03-21T17:56:20.227Z,1.17
2023-03-21T17:58:47.309Z,1.00
2023-03-21T18:01:14.737Z,1.48
2023-03-21T18:03:42.393Z,0.95
2023-03-21T18:06:16.369Z,1.00
2023-03-21T18:08:43.506Z,1.15
2023-03-21T18:11:12.738Z,1.90
2023-03-21T18:13:40.267Z,1.27
2023-03-21T18:16:08.088Z,0.98
2023-03-21T18:18:35.101Z,0.80
2023-03-21T18:21:02.088Z,0.60
2023-03-21T18:23:29.005Z,1.20
2023-03-21T18:25:55.679Z,0.90
2023-03-21T18:28:22.728Z,2.08
2023-03-21T18:33:40.469Z,1.30
2023-03-21T18:36:09.651Z,1.10
2023-03-21T18:38:37.133Z,1.30
2023-03-21T18:41:04.841Z,1.27
2023-03-21T18:46:19.008Z,1.05
2023-03-21T18:48:46.567Z,2.00
2023-03-21T18:51:13.646Z,1.83
2023-03-21T18:53:40.312Z,1.20
2023-03-21T18:56:10.087Z,1.13
2023-03-21T18:58:37.359Z,1.65
2023-03-21T19:01:05.198Z,1.30
2023-03-21T19:03:37.039Z,1.20
2023-03-21T19:06:05.641Z,1.42
2023-03-21T19:08:34.694Z,1.48
2023-03-21T19:11:06.061Z,0.73
2023-03-21T19:13:33.906Z,1.95
2023-03-21T19:16:02.729Z,1.10
2023-03-21T19:18:52.115Z,0.93
2023-03-21T19:21:18.590Z,1.33
2023-03-21T19:24:20.920Z,0.80
2023-03-21T19:26:32.430Z,1.08
2023-03-21T19:28:59.095Z,1.30
2023-03-21T19:31:26.787Z,1.55
2023-03-21T19:33:53.510Z,1.00
2023-03-21T19:36:22.953Z,1.05
2023-03-21T19:38:51.009Z,1.10
2023-03-21T19:41:18.914Z,1.38
2023-03-21T19:43:54.104Z,1.25
2023-03-21T19:46:24.876Z,1.25
2023-03-21T19:48:56.182Z,1.70
2023-03-21T19:51:29.369Z,1.73
2023-03-21T19:53:57.886Z,1.35
2023-03-21T19:56:26.980Z,1.17
2023-03-21T19:58:55.614Z,1.70
2023-03-21T20:01:23.979Z,1.73
2023-03-21T20:03:51.614Z,1.23
2023-03-21T20:06:18.661Z,1.00
2023-03-21T20:11:33.684Z,2.22
2023-03-21T20:14:03.035Z,0.85
2023-03-21T20:16:35.181Z,1.08
2023-03-21T20:19:03.588Z,2.33
2023-03-21T20:21:40.176Z,2.05
2023-03-21T20:24:11.488Z,0.88
2023-03-21T20:26:38.470Z,1.45
2023-03-21T20:29:43.638Z,2.03
2023-03-21T20:31:53.242Z,1.23
2023-03-21T20:34:21.125Z,1.38
2023-03-21T20:36:48.388Z,1.20
2023-03-21T20:39:15.574Z,1.50
2023-03-21T20:41:42.472Z,1.55
2023-03-21T20:49:24.389Z,1.75
2023-03-21T20:54:38.369Z,0.88
2023-03-21T20:57:05.152Z,1.35
2023-03-21T20:59:31.846Z,1.20
2023-03-21T21:01:58.777Z,1.73
2023-03-21T21:07:17.455Z,1.55
2023-03-21T21:09:45.103Z,1.40
2023-03-21T21:12:13.970Z,1.40
2023-03-21T21:14:41.622Z,1.85
2023-03-21T21:17:26.730Z,1.77
2023-03-21T21:19:55.489Z,2.03
2023-03-21T21:22:22.141Z,1.45
2023-03-21T21:24:48.774Z,1.70
2023-03-21T21:27:15.692Z,1.85
2023-03-21T21:29:43.463Z,1.50
2023-03-21T21:32:11.410Z,1.15
2023-03-21T21:34:38.355Z,1.20
2023-03-21T21:37:05.324Z,1.40
2023-03-21T21:39:37.935Z,2.65
2023-03-21T21:42:05.806Z,1.70
2023-03-21T21:44:33.373Z,1.17
2023-03-21T21:47:00.416Z,1.80
2023-03-21T21:49:28.221Z,1.17
2023-03-21T21:51:56.325Z,1.85
2023-03-21T21:54:23.933Z,2.03
2023-03-21T21:56:54.139Z,1.88
2023-03-21T21:59:22.249Z,1.83
2023-03-21T22:01:51.436Z,1.63
2023-03-21T22:04:19.522Z,1.95
2023-03-21T22:06:47.852Z,1.33
2023-03-21T22:09:15.849Z,1.40
2023-03-21T22:11:42.748Z,2.42
2023-03-21T22:14:09.413Z,1.42
2023-03-21T22:16:36.444Z,1.60
2023-03-21T22:19:03.268Z,1.90
2023-03-21T22:21:29.935Z,1.45
2023-03-21T22:23:56.623Z,1.92
2023-03-21T22:26:23.372Z,1.50
2023-03-21T22:28:50.053Z,1.30
2023-03-21T22:31:17.449Z,1.92
2023-03-21T22:33:45.160Z,2.05
2023-03-21T22:36:12.352Z,1.55
2023-03-21T22:38:39.215Z,2.17
2023-03-21T22:41:07.078Z,2.75
2023-03-21T22:43:35.303Z,1.38
2023-03-21T22:46:06.109Z,1.50
2023-03-21T22:48:33.148Z,1.90
2023-03-21T22:51:01.174Z,1.83
2023-03-21T22:53:28.887Z,1.90
2023-03-21T22:55:56.238Z,2.10
2023-03-21T22:58:23.775Z,1.60
2023-03-21T23:00:50.700Z,2.35
2023-03-21T23:03:17.731Z,1.23
2023-03-21T23:05:45.614Z,1.35
2023-03-21T23:08:13.064Z,1.45
2023-03-21T23:10:43.857Z,1.65
2023-03-21T23:13:10.841Z,1.63
2023-03-21T23:15:41.088Z,2.00
2023-03-21T23:18:08.129Z,1.25
2023-03-21T23:20:35.020Z,1.67
2023-03-21T23:23:01.810Z,2.05
2023-03-21T23:25:31.327Z,1.75
2023-03-21T23:27:57.959Z,1.52
2023-03-21T23:30:24.880Z,1.75
2023-03-21T23:32:52.554Z,1.75
2023-03-21T23:35:19.391Z,1.92
2023-03-21T23:37:53.064Z,1.50
2023-03-21T23:40:21.266Z,1.88
2023-03-21T23:42:48.046Z,2.10
2023-03-21T23:45:14.798Z,1.30
2023-03-21T23:47:41.557Z,2.13
2023-03-21T23:50:09.953Z,1.90
2023-03-21T23:52:37.614Z,1.40
2023-03-21T23:55:05.823Z,1.50
2023-03-21T23:57:32.556Z,2.53
2023-03-21T23:59:59.451Z,1.27
